Hlavní strana
METAR-TAF:

METAR-TAF

Letiště :

Pago Pago, Menší odlehlé ostrovy Spojených států amerických

zeměpisná šířka: 14-20S, zeměpisná délka: 170-43W, výška: 3 m

Aktuální stav počasí

Zpráva byla vytvořena před 46 minutami, v 03:50 UTC
vítr z různých směrů 4 kt
Teplota 29°C
Vlhkost vzduchu 79%
Tlak 1005 hPa
Viditelnost: 17.7 km
Polojasno ve výšce 1600 ft
Polojasno ve výšce 3500 ft
Oblačno až skoro zataženo ve výšce 12000 ft

METAR: NSTU 170350Z VRB04KT 11SM SCT016 SCT035 BKN120 29/25 A2969 RMK SLP054 T02870250

Čas: 17:36 (04:36 UTC)

Předpověď počasí

Zpráva byla vytvořena před 4 hodinami a 51 minutami, v 23:45 UTC
Předpověď platná od 17 v 00 UTC do 17 v 24 UTC
Severoseverozápadní vítr 11 kt
Viditelnost: 10 km
Polojasno ve výšce 1500 ft
Oblačno až skoro zataženo ve výšce 3500 ft
Zataženo ve výšce 10000 ft
přeháňky v blízkosti

TAF: NSTU 162345Z 1700/1724 33011KT P6SM VCSH SCT015 BKN035 OVC100

Stav a předpovědi počasí z více než 4 000 letišť (zprávy METAR a TAF).

Červené a žluté tečky na mapě představují dostupné meteorologické stanice.

Když kurzor umístíte na tečku, zobrazí se název stanice.

Pak kliknutím zobrazíte stav a předpověď počasí.

Chcete-li změnit mapu, kliknutím na zelené tlačítko se znaménkem +mapu přiblížíte, kliknutím na zelené tlačítko se znaménkem – mapu oddálíte a kliknutím na zelené šipky přejdete na sousední mapy.


METAR-TAF: